sensor_id;sensor_type;location;lat;lon;timestamp;P1;durP1;ratioP1;P2;durP2;ratioP2
55146;SDS011;41039;49.830;23.988;2023-04-24T00:02:15;5.90;;;3.97;;
55146;SDS011;41039;49.830;23.988;2023-04-24T00:04:41;5.65;;;4.15;;
55146;SDS011;41039;49.830;23.988;2023-04-24T00:07:09;7.70;;;4.97;;
55146;SDS011;41039;49.830;23.988;2023-04-24T00:09:35;6.13;;;4.47;;
55146;SDS011;41039;49.830;23.988;2023-04-24T00:12:00;6.28;;;4.75;;
55146;SDS011;41039;49.830;23.988;2023-04-24T00:14:28;6.22;;;4.00;;
55146;SDS011;41039;49.830;23.988;2023-04-24T00:16:53;6.15;;;3.92;;
55146;SDS011;41039;49.830;23.988;2023-04-24T00:19:19;5.93;;;3.53;;
55146;SDS011;41039;49.830;23.988;2023-04-24T00:21:46;4.72;;;3.65;;
55146;SDS011;41039;49.830;23.988;2023-04-24T00:24:11;5.43;;;3.53;;
55146;SDS011;41039;49.830;23.988;2023-04-24T00:26:36;5.40;;;3.55;;
55146;SDS011;41039;49.830;23.988;2023-04-24T00:29:02;7.55;;;3.20;;
55146;SDS011;41039;49.830;23.988;2023-04-24T00:31:27;4.90;;;3.50;;
55146;SDS011;41039;49.830;23.988;2023-04-24T00:33:52;6.90;;;3.83;;
55146;SDS011;41039;49.830;23.988;2023-04-24T00:36:18;6.05;;;3.45;;
55146;SDS011;41039;49.830;23.988;2023-04-24T00:38:45;4.53;;;3.15;;
55146;SDS011;41039;49.830;23.988;2023-04-24T00:41:10;8.90;;;3.55;;
55146;SDS011;41039;49.830;23.988;2023-04-24T00:43:36;6.25;;;3.42;;
55146;SDS011;41039;49.830;23.988;2023-04-24T00:46:01;5.38;;;3.88;;
55146;SDS011;41039;49.830;23.988;2023-04-24T00:48:26;6.13;;;3.63;;
55146;SDS011;41039;49.830;23.988;2023-04-24T00:50:52;5.05;;;3.88;;
55146;SDS011;41039;49.830;23.988;2023-04-24T00:53:17;9.55;;;3.67;;
55146;SDS011;41039;49.830;23.988;2023-04-24T00:55:43;6.05;;;3.88;;
55146;SDS011;41039;49.830;23.988;2023-04-24T00:58:08;5.80;;;3.65;;
55146;SDS011;41039;49.830;23.988;2023-04-24T01:00:33;4.88;;;3.30;;
55146;SDS011;41039;49.830;23.988;2023-04-24T01:02:59;5.85;;;3.70;;
55146;SDS011;41039;49.830;23.988;2023-04-24T01:05:26;6.13;;;3.33;;
55146;SDS011;41039;49.830;23.988;2023-04-24T01:07:52;5.90;;;3.63;;
55146;SDS011;41039;49.830;23.988;2023-04-24T01:10:17;6.50;;;4.22;;
55146;SDS011;41039;49.830;23.988;2023-04-24T01:12:42;6.38;;;4.07;;
55146;SDS011;41039;49.830;23.988;2023-04-24T01:15:08;6.03;;;3.67;;
55146;SDS011;41039;49.830;23.988;2023-04-24T01:17:33;6.88;;;4.00;;
55146;SDS011;41039;49.830;23.988;2023-04-24T01:19:59;5.50;;;3.30;;
55146;SDS011;41039;49.830;23.988;2023-04-24T01:22:25;6.07;;;3.38;;
55146;SDS011;41039;49.830;23.988;2023-04-24T01:24:50;6.85;;;3.97;;
55146;SDS011;41039;49.830;23.988;2023-04-24T01:27:16;6.55;;;3.40;;
55146;SDS011;41039;49.830;23.988;2023-04-24T01:29:41;5.95;;;3.70;;
55146;SDS011;41039;49.830;23.988;2023-04-24T01:32:06;5.88;;;4.00;;
55146;SDS011;41039;49.830;23.988;2023-04-24T01:34:32;5.82;;;3.70;;
55146;SDS011;41039;49.830;23.988;2023-04-24T01:36:57;6.22;;;3.20;;
55146;SDS011;41039;49.830;23.988;2023-04-24T01:39:23;6.65;;;3.17;;
55146;SDS011;41039;49.830;23.988;2023-04-24T01:41:50;4.78;;;3.45;;
55146;SDS011;41039;49.830;23.988;2023-04-24T01:44:15;5.38;;;3.60;;
55146;SDS011;41039;49.830;23.988;2023-04-24T01:46:41;7.75;;;3.45;;
55146;SDS011;41039;49.830;23.988;2023-04-24T01:49:06;7.93;;;4.07;;
55146;SDS011;41039;49.830;23.988;2023-04-24T01:51:31;6.55;;;3.78;;
55146;SDS011;41039;49.830;23.988;2023-04-24T01:53:57;7.63;;;3.55;;
55146;SDS011;41039;49.830;23.988;2023-04-24T01:56:22;5.60;;;3.97;;
55146;SDS011;41039;49.830;23.988;2023-04-24T01:58:48;4.85;;;3.78;;
55146;SDS011;41039;49.830;23.988;2023-04-24T02:01:20;6.10;;;3.35;;
55146;SDS011;41039;49.830;23.988;2023-04-24T02:03:46;5.68;;;3.60;;
55146;SDS011;41039;49.830;23.988;2023-04-24T02:06:11;4.82;;;3.28;;
55146;SDS011;41039;49.830;23.988;2023-04-24T02:08:36;5.78;;;3.70;;
55146;SDS011;41039;49.830;23.988;2023-04-24T02:11:01;7.03;;;4.22;;
55146;SDS011;41039;49.830;23.988;2023-04-24T02:13:27;5.55;;;3.45;;
55146;SDS011;41039;49.830;23.988;2023-04-24T02:15:52;6.03;;;3.40;;
55146;SDS011;41039;49.830;23.988;2023-04-24T02:18:17;5.32;;;4.03;;
55146;SDS011;41039;49.830;23.988;2023-04-24T02:20:43;6.53;;;4.30;;
55146;SDS011;41039;49.830;23.988;2023-04-24T02:23:08;21.35;;;5.18;;
55146;SDS011;41039;49.830;23.988;2023-04-24T02:25:33;12.48;;;4.78;;
55146;SDS011;41039;49.830;23.988;2023-04-24T02:27:59;14.32;;;5.03;;
55146;SDS011;41039;49.830;23.988;2023-04-24T02:30:24;16.35;;;5.20;;
55146;SDS011;41039;49.830;23.988;2023-04-24T02:32:49;21.42;;;6.50;;
55146;SDS011;41039;49.830;23.988;2023-04-24T02:35:14;29.42;;;7.53;;
55146;SDS011;41039;49.830;23.988;2023-04-24T02:37:40;25.92;;;6.53;;
55146;SDS011;41039;49.830;23.988;2023-04-24T02:40:05;17.52;;;6.00;;
55146;SDS011;41039;49.830;23.988;2023-04-24T02:42:30;13.82;;;5.15;;
55146;SDS011;41039;49.830;23.988;2023-04-24T02:44:56;10.02;;;4.43;;
55146;SDS011;41039;49.830;23.988;2023-04-24T02:47:21;11.77;;;4.55;;
55146;SDS011;41039;49.830;23.988;2023-04-24T02:49:46;6.45;;;3.63;;
55146;SDS011;41039;49.830;23.988;2023-04-24T02:52:11;6.75;;;3.80;;
55146;SDS011;41039;49.830;23.988;2023-04-24T02:54:37;6.10;;;3.90;;
55146;SDS011;41039;49.830;23.988;2023-04-24T02:57:02;5.15;;;3.38;;
55146;SDS011;41039;49.830;23.988;2023-04-24T02:59:27;6.32;;;3.55;;
55146;SDS011;41039;49.830;23.988;2023-04-24T03:01:53;8.15;;;3.70;;
55146;SDS011;41039;49.830;23.988;2023-04-24T03:04:19;4.28;;;3.33;;
55146;SDS011;41039;49.830;23.988;2023-04-24T03:06:45;5.10;;;3.55;;
55146;SDS011;41039;49.830;23.988;2023-04-24T03:09:10;5.88;;;3.50;;
55146;SDS011;41039;49.830;23.988;2023-04-24T03:11:36;5.05;;;3.55;;
55146;SDS011;41039;49.830;23.988;2023-04-24T03:14:01;5.20;;;3.90;;
55146;SDS011;41039;49.830;23.988;2023-04-24T03:16:27;4.38;;;3.25;;
55146;SDS011;41039;49.830;23.988;2023-04-24T03:18:52;4.57;;;3.38;;
55146;SDS011;41039;49.830;23.988;2023-04-24T03:21:17;7.15;;;3.92;;
55146;SDS011;41039;49.830;23.988;2023-04-24T03:23:43;6.75;;;3.33;;
55146;SDS011;41039;49.830;23.988;2023-04-24T03:26:08;5.25;;;3.42;;
55146;SDS011;41039;49.830;23.988;2023-04-24T03:28:33;5.50;;;3.50;;
55146;SDS011;41039;49.830;23.988;2023-04-24T03:30:58;7.10;;;3.65;;
55146;SDS011;41039;49.830;23.988;2023-04-24T03:33:24;5.43;;;3.65;;
55146;SDS011;41039;49.830;23.988;2023-04-24T03:35:50;5.50;;;3.60;;
55146;SDS011;41039;49.830;23.988;2023-04-24T03:38:15;5.03;;;3.45;;
55146;SDS011;41039;49.830;23.988;2023-04-24T03:40:40;4.95;;;3.42;;
55146;SDS011;41039;49.830;23.988;2023-04-24T03:43:05;5.65;;;3.15;;
55146;SDS011;41039;49.830;23.988;2023-04-24T03:45:31;4.72;;;3.75;;
55146;SDS011;41039;49.830;23.988;2023-04-24T03:47:56;5.82;;;3.22;;
55146;SDS011;41039;49.830;23.988;2023-04-24T03:50:21;7.03;;;3.95;;
55146;SDS011;41039;49.830;23.988;2023-04-24T03:52:47;4.70;;;3.63;;
55146;SDS011;41039;49.830;23.988;2023-04-24T03:55:12;5.70;;;3.45;;
55146;SDS011;41039;49.830;23.988;2023-04-24T03:57:39;5.63;;;3.67;;
55146;SDS011;41039;49.830;23.988;2023-04-24T04:00:05;16.88;;;4.45;;
55146;SDS011;41039;49.830;23.988;2023-04-24T04:02:31;6.15;;;3.22;;
55146;SDS011;41039;49.830;23.988;2023-04-24T04:04:56;8.35;;;3.90;;
55146;SDS011;41039;49.830;23.988;2023-04-24T04:07:21;8.88;;;3.85;;
55146;SDS011;41039;49.830;23.988;2023-04-24T04:09:46;7.10;;;4.05;;
55146;SDS011;41039;49.830;23.988;2023-04-24T04:12:12;10.13;;;3.72;;
55146;SDS011;41039;49.830;23.988;2023-04-24T04:14:37;8.05;;;3.53;;
55146;SDS011;41039;49.830;23.988;2023-04-24T04:17:03;9.73;;;3.90;;
55146;SDS011;41039;49.830;23.988;2023-04-24T04:19:28;5.95;;;3.53;;
55146;SDS011;41039;49.830;23.988;2023-04-24T04:21:53;6.10;;;3.72;;
55146;SDS011;41039;49.830;23.988;2023-04-24T04:24:21;4.85;;;3.67;;
55146;SDS011;41039;49.830;23.988;2023-04-24T04:26:47;5.43;;;4.10;;
55146;SDS011;41039;49.830;23.988;2023-04-24T04:29:13;4.28;;;3.30;;
55146;SDS011;41039;49.830;23.988;2023-04-24T04:31:38;5.35;;;3.53;;
55146;SDS011;41039;49.830;23.988;2023-04-24T04:34:03;6.20;;;3.75;;
55146;SDS011;41039;49.830;23.988;2023-04-24T04:36:29;7.40;;;3.70;;
55146;SDS011;41039;49.830;23.988;2023-04-24T04:38:54;6.15;;;3.42;;
55146;SDS011;41039;49.830;23.988;2023-04-24T04:41:19;9.82;;;3.90;;
55146;SDS011;41039;49.830;23.988;2023-04-24T04:43:45;5.63;;;3.15;;
55146;SDS011;41039;49.830;23.988;2023-04-24T04:46:11;6.72;;;3.95;;
55146;SDS011;41039;49.830;23.988;2023-04-24T04:48:36;8.02;;;4.10;;
55146;SDS011;41039;49.830;23.988;2023-04-24T04:51:02;6.53;;;3.90;;
55146;SDS011;41039;49.830;23.988;2023-04-24T04:53:28;6.95;;;3.42;;
55146;SDS011;41039;49.830;23.988;2023-04-24T04:55:53;7.68;;;4.00;;
55146;SDS011;41039;49.830;23.988;2023-04-24T04:58:18;5.68;;;3.47;;
55146;SDS011;41039;49.830;23.988;2023-04-24T05:00:44;4.53;;;3.70;;
55146;SDS011;41039;49.830;23.988;2023-04-24T05:03:09;7.45;;;3.70;;
55146;SDS011;41039;49.830;23.988;2023-04-24T05:05:34;6.60;;;3.95;;
55146;SDS011;41039;49.830;23.988;2023-04-24T05:08:00;5.22;;;3.20;;
55146;SDS011;41039;49.830;23.988;2023-04-24T05:10:25;4.82;;;3.65;;
55146;SDS011;41039;49.830;23.988;2023-04-24T05:12:50;5.53;;;3.45;;
55146;SDS011;41039;49.830;23.988;2023-04-24T05:15:15;6.43;;;3.97;;
55146;SDS011;41039;49.830;23.988;2023-04-24T05:17:41;6.00;;;3.90;;
55146;SDS011;41039;49.830;23.988;2023-04-24T05:20:06;5.82;;;4.18;;
55146;SDS011;41039;49.830;23.988;2023-04-24T05:22:32;6.97;;;3.40;;
55146;SDS011;41039;49.830;23.988;2023-04-24T05:24:57;6.10;;;2.90;;
55146;SDS011;41039;49.830;23.988;2023-04-24T05:27:22;10.05;;;3.58;;
55146;SDS011;41039;49.830;23.988;2023-04-24T05:29:47;14.13;;;7.53;;
55146;SDS011;41039;49.830;23.988;2023-04-24T05:32:13;6.95;;;3.92;;
55146;SDS011;41039;49.830;23.988;2023-04-24T05:34:38;7.68;;;3.83;;
55146;SDS011;41039;49.830;23.988;2023-04-24T05:37:03;5.97;;;3.60;;
55146;SDS011;41039;49.830;23.988;2023-04-24T05:39:33;6.60;;;2.88;;
55146;SDS011;41039;49.830;23.988;2023-04-24T05:41:58;7.93;;;3.53;;
55146;SDS011;41039;49.830;23.988;2023-04-24T05:44:23;8.70;;;3.63;;
55146;SDS011;41039;49.830;23.988;2023-04-24T05:46:48;6.82;;;3.30;;
55146;SDS011;41039;49.830;23.988;2023-04-24T05:49:14;10.95;;;4.40;;
55146;SDS011;41039;49.830;23.988;2023-04-24T05:51:39;6.70;;;3.67;;
55146;SDS011;41039;49.830;23.988;2023-04-24T05:54:04;12.30;;;4.10;;
55146;SDS011;41039;49.830;23.988;2023-04-24T05:56:30;7.40;;;3.58;;
55146;SDS011;41039;49.830;23.988;2023-04-24T05:58:55;10.10;;;3.95;;
55146;SDS011;41039;49.830;23.988;2023-04-24T06:01:20;6.30;;;3.83;;
55146;SDS011;41039;49.830;23.988;2023-04-24T06:03:46;5.35;;;3.30;;
55146;SDS011;41039;49.830;23.988;2023-04-24T06:06:11;7.95;;;3.50;;
55146;SDS011;41039;49.830;23.988;2023-04-24T06:08:37;4.18;;;3.35;;
55146;SDS011;41039;49.830;23.988;2023-04-24T06:11:02;5.97;;;3.28;;
55146;SDS011;41039;49.830;23.988;2023-04-24T06:13:27;8.75;;;3.40;;
55146;SDS011;41039;49.830;23.988;2023-04-24T06:15:52;6.93;;;3.65;;
55146;SDS011;41039;49.830;23.988;2023-04-24T06:18:18;9.80;;;3.88;;
55146;SDS011;41039;49.830;23.988;2023-04-24T06:20:43;5.70;;;3.22;;
55146;SDS011;41039;49.830;23.988;2023-04-24T06:23:08;8.30;;;3.25;;
55146;SDS011;41039;49.830;23.988;2023-04-24T06:25:33;11.20;;;3.35;;
55146;SDS011;41039;49.830;23.988;2023-04-24T06:27:58;8.57;;;3.85;;
55146;SDS011;41039;49.830;23.988;2023-04-24T06:30:24;7.50;;;3.60;;
55146;SDS011;41039;49.830;23.988;2023-04-24T06:32:50;6.85;;;3.30;;
55146;SDS011;41039;49.830;23.988;2023-04-24T06:35:15;7.07;;;3.55;;
55146;SDS011;41039;49.830;23.988;2023-04-24T06:37:41;9.00;;;3.77;;
55146;SDS011;41039;49.830;23.988;2023-04-24T06:40:06;5.35;;;3.97;;
55146;SDS011;41039;49.830;23.988;2023-04-24T06:42:32;10.15;;;4.55;;
55146;SDS011;41039;49.830;23.988;2023-04-24T06:44:57;5.53;;;3.65;;
55146;SDS011;41039;49.830;23.988;2023-04-24T06:47:22;5.63;;;3.30;;
55146;SDS011;41039;49.830;23.988;2023-04-24T06:49:47;13.13;;;4.25;;
55146;SDS011;41039;49.830;23.988;2023-04-24T06:52:13;6.38;;;3.42;;
55146;SDS011;41039;49.830;23.988;2023-04-24T06:54:38;7.55;;;3.40;;
55146;SDS011;41039;49.830;23.988;2023-04-24T06:57:03;8.07;;;3.90;;
55146;SDS011;41039;49.830;23.988;2023-04-24T06:59:29;8.98;;;4.07;;
55146;SDS011;41039;49.830;23.988;2023-04-24T07:01:54;7.32;;;3.25;;
55146;SDS011;41039;49.830;23.988;2023-04-24T07:04:20;6.68;;;3.78;;
55146;SDS011;41039;49.830;23.988;2023-04-24T07:06:45;6.93;;;3.65;;
55146;SDS011;41039;49.830;23.988;2023-04-24T07:09:14;5.85;;;3.30;;
55146;SDS011;41039;49.830;23.988;2023-04-24T07:11:40;5.53;;;3.78;;
55146;SDS011;41039;49.830;23.988;2023-04-24T07:14:06;7.45;;;4.50;;
55146;SDS011;41039;49.830;23.988;2023-04-24T07:16:31;10.05;;;3.97;;
55146;SDS011;41039;49.830;23.988;2023-04-24T07:18:57;9.82;;;4.43;;
55146;SDS011;41039;49.830;23.988;2023-04-24T07:21:22;7.03;;;3.83;;
55146;SDS011;41039;49.830;23.988;2023-04-24T07:23:47;6.65;;;3.70;;
55146;SDS011;41039;49.830;23.988;2023-04-24T07:26:12;6.80;;;3.70;;
55146;SDS011;41039;49.830;23.988;2023-04-24T07:28:39;10.52;;;3.97;;
55146;SDS011;41039;49.830;23.988;2023-04-24T07:31:05;8.88;;;3.42;;
55146;SDS011;41039;49.830;23.988;2023-04-24T07:33:30;7.05;;;3.63;;
55146;SDS011;41039;49.830;23.988;2023-04-24T07:35:55;7.95;;;4.13;;
55146;SDS011;41039;49.830;23.988;2023-04-24T07:38:21;8.18;;;3.78;;
55146;SDS011;41039;49.830;23.988;2023-04-24T07:40:47;8.80;;;3.80;;
55146;SDS011;41039;49.830;23.988;2023-04-24T07:43:12;7.65;;;4.50;;
55146;SDS011;41039;49.830;23.988;2023-04-24T07:45:38;8.37;;;3.57;;
55146;SDS011;41039;49.830;23.988;2023-04-24T07:48:04;6.18;;;3.60;;
55146;SDS011;41039;49.830;23.988;2023-04-24T07:50:29;6.53;;;3.38;;
55146;SDS011;41039;49.830;23.988;2023-04-24T07:52:55;8.60;;;5.70;;
55146;SDS011;41039;49.830;23.988;2023-04-24T07:55:20;6.60;;;3.67;;
55146;SDS011;41039;49.830;23.988;2023-04-24T07:57:45;8.85;;;3.72;;
55146;SDS011;41039;49.830;23.988;2023-04-24T08:00:11;5.47;;;3.47;;
55146;SDS011;41039;49.830;23.988;2023-04-24T08:02:36;5.22;;;3.55;;
55146;SDS011;41039;49.830;23.988;2023-04-24T08:05:01;8.23;;;3.47;;
55146;SDS011;41039;49.830;23.988;2023-04-24T08:07:29;7.32;;;3.25;;
55146;SDS011;41039;49.830;23.988;2023-04-24T08:09:54;6.53;;;3.92;;
55146;SDS011;41039;49.830;23.988;2023-04-24T08:12:20;7.22;;;3.75;;
55146;SDS011;41039;49.830;23.988;2023-04-24T08:14:45;7.03;;;3.67;;
55146;SDS011;41039;49.830;23.988;2023-04-24T08:17:10;6.78;;;3.80;;
55146;SDS011;41039;49.830;23.988;2023-04-24T08:19:35;8.90;;;5.10;;
55146;SDS011;41039;49.830;23.988;2023-04-24T08:22:01;6.38;;;3.08;;
55146;SDS011;41039;49.830;23.988;2023-04-24T08:24:26;7.85;;;3.85;;
55146;SDS011;41039;49.830;23.988;2023-04-24T08:26:51;5.80;;;3.00;;
55146;SDS011;41039;49.830;23.988;2023-04-24T08:29:19;6.18;;;2.88;;
55146;SDS011;41039;49.830;23.988;2023-04-24T08:31:44;5.45;;;3.17;;
55146;SDS011;41039;49.830;23.988;2023-04-24T08:34:09;4.57;;;3.50;;
55146;SDS011;41039;49.830;23.988;2023-04-24T08:36:35;7.95;;;3.30;;
55146;SDS011;41039;49.830;23.988;2023-04-24T08:39:00;3.80;;;3.30;;
55146;SDS011;41039;49.830;23.988;2023-04-24T08:41:26;6.90;;;3.53;;
55146;SDS011;41039;49.830;23.988;2023-04-24T08:43:51;3.65;;;2.63;;
55146;SDS011;41039;49.830;23.988;2023-04-24T08:46:17;6.00;;;2.97;;
55146;SDS011;41039;49.830;23.988;2023-04-24T08:48:43;8.18;;;3.10;;
55146;SDS011;41039;49.830;23.988;2023-04-24T08:51:09;6.57;;;3.25;;
55146;SDS011;41039;49.830;23.988;2023-04-24T08:53:34;6.05;;;3.65;;
55146;SDS011;41039;49.830;23.988;2023-04-24T08:56:00;6.70;;;3.08;;
55146;SDS011;41039;49.830;23.988;2023-04-24T08:58:26;9.63;;;4.30;;
55146;SDS011;41039;49.830;23.988;2023-04-24T09:00:53;5.18;;;3.10;;
55146;SDS011;41039;49.830;23.988;2023-04-24T09:03:19;6.82;;;3.17;;
55146;SDS011;41039;49.830;23.988;2023-04-24T09:05:46;7.60;;;3.58;;
55146;SDS011;41039;49.830;23.988;2023-04-24T09:08:15;5.60;;;3.47;;
55146;SDS011;41039;49.830;23.988;2023-04-24T09:10:41;7.10;;;3.75;;
55146;SDS011;41039;49.830;23.988;2023-04-24T09:13:06;5.95;;;3.80;;
55146;SDS011;41039;49.830;23.988;2023-04-24T09:15:34;7.07;;;3.55;;
55146;SDS011;41039;49.830;23.988;2023-04-24T09:17:59;6.32;;;3.38;;
55146;SDS011;41039;49.830;23.988;2023-04-24T09:20:25;5.25;;;3.50;;
55146;SDS011;41039;49.830;23.988;2023-04-24T09:22:53;6.90;;;3.40;;
55146;SDS011;41039;49.830;23.988;2023-04-24T09:25:18;6.65;;;3.50;;
55146;SDS011;41039;49.830;23.988;2023-04-24T09:27:44;6.18;;;3.67;;
55146;SDS011;41039;49.830;23.988;2023-04-24T09:30:10;3.78;;;3.25;;
55146;SDS011;41039;49.830;23.988;2023-04-24T09:32:35;6.32;;;3.25;;
55146;SDS011;41039;49.830;23.988;2023-04-24T09:35:11;8.38;;;3.83;;
55146;SDS011;41039;49.830;23.988;2023-04-24T09:42:35;6.78;;;3.30;;
55146;SDS011;41039;49.830;23.988;2023-04-24T09:45:01;5.30;;;3.17;;
55146;SDS011;41039;49.830;23.988;2023-04-24T09:47:27;8.48;;;4.25;;
55146;SDS011;41039;49.830;23.988;2023-04-24T09:49:53;4.82;;;3.22;;
55146;SDS011;41039;49.830;23.988;2023-04-24T09:52:22;8.18;;;4.47;;
55146;SDS011;41039;49.830;23.988;2023-04-24T09:54:52;6.20;;;3.78;;
55146;SDS011;41039;49.830;23.988;2023-04-24T09:57:17;5.80;;;3.97;;
55146;SDS011;41039;49.830;23.988;2023-04-24T09:59:43;8.47;;;3.47;;
55146;SDS011;41039;49.830;23.988;2023-04-24T10:02:17;5.68;;;3.50;;
55146;SDS011;41039;49.830;23.988;2023-04-24T10:07:08;5.03;;;3.08;;
55146;SDS011;41039;49.830;23.988;2023-04-24T10:09:35;6.10;;;3.10;;
55146;SDS011;41039;49.830;23.988;2023-04-24T10:12:00;5.97;;;3.30;;
55146;SDS011;41039;49.830;23.988;2023-04-24T10:14:27;5.45;;;3.15;;
55146;SDS011;41039;49.830;23.988;2023-04-24T10:16:55;5.00;;;3.03;;
55146;SDS011;41039;49.830;23.988;2023-04-24T10:19:24;6.68;;;3.33;;
55146;SDS011;41039;49.830;23.988;2023-04-24T10:21:50;7.95;;;3.28;;
55146;SDS011;41039;49.830;23.988;2023-04-24T10:24:16;6.05;;;3.20;;
55146;SDS011;41039;49.830;23.988;2023-04-24T10:26:42;6.90;;;2.95;;
55146;SDS011;41039;49.830;23.988;2023-04-24T10:29:08;6.47;;;3.13;;
55146;SDS011;41039;49.830;23.988;2023-04-24T10:31:35;3.60;;;2.63;;
55146;SDS011;41039;49.830;23.988;2023-04-24T10:34:01;4.80;;;2.63;;
55146;SDS011;41039;49.830;23.988;2023-04-24T10:36:26;5.53;;;3.25;;
55146;SDS011;41039;49.830;23.988;2023-04-24T10:38:53;6.95;;;3.20;;
55146;SDS011;41039;49.830;23.988;2023-04-24T10:41:21;3.95;;;2.90;;
55146;SDS011;41039;49.830;23.988;2023-04-24T10:44:09;7.15;;;3.33;;
55146;SDS011;41039;49.830;23.988;2023-04-24T10:46:34;5.05;;;2.80;;
55146;SDS011;41039;49.830;23.988;2023-04-24T10:49:00;4.70;;;3.10;;
55146;SDS011;41039;49.830;23.988;2023-04-24T10:54:21;5.85;;;3.40;;
55146;SDS011;41039;49.830;23.988;2023-04-24T10:56:47;7.22;;;3.33;;
55146;SDS011;41039;49.830;23.988;2023-04-24T10:59:12;7.60;;;3.10;;
55146;SDS011;41039;49.830;23.988;2023-04-24T11:01:52;5.60;;;2.85;;
55146;SDS011;41039;49.830;23.988;2023-04-24T11:04:21;6.80;;;3.08;;
55146;SDS011;41039;49.830;23.988;2023-04-24T11:06:53;5.32;;;3.10;;
55146;SDS011;41039;49.830;23.988;2023-04-24T11:09:18;6.05;;;2.92;;
55146;SDS011;41039;49.830;23.988;2023-04-24T11:11:46;5.80;;;2.97;;
55146;SDS011;41039;49.830;23.988;2023-04-24T11:14:14;4.20;;;2.88;;
55146;SDS011;41039;49.830;23.988;2023-04-24T11:16:51;4.80;;;3.25;;
55146;SDS011;41039;49.830;23.988;2023-04-24T11:24:26;6.40;;;2.78;;
55146;SDS011;41039;49.830;23.988;2023-04-24T11:26:51;5.05;;;2.85;;
55146;SDS011;41039;49.830;23.988;2023-04-24T11:29:19;3.80;;;2.60;;
55146;SDS011;41039;49.830;23.988;2023-04-24T11:31:44;16.63;;;4.30;;
55146;SDS011;41039;49.830;23.988;2023-04-24T11:34:15;5.28;;;2.65;;
55146;SDS011;41039;49.830;23.988;2023-04-24T11:36:44;7.88;;;2.85;;
55146;SDS011;41039;49.830;23.988;2023-04-24T11:39:10;4.60;;;2.38;;
55146;SDS011;41039;49.830;23.988;2023-04-24T11:41:36;20.60;;;3.60;;
55146;SDS011;41039;49.830;23.988;2023-04-24T11:44:02;6.47;;;2.53;;
55146;SDS011;41039;49.830;23.988;2023-04-24T11:46:28;5.35;;;2.42;;
55146;SDS011;41039;49.830;23.988;2023-04-24T11:48:55;4.95;;;2.80;;
55146;SDS011;41039;49.830;23.988;2023-04-24T11:51:23;4.07;;;2.25;;
55146;SDS011;41039;49.830;23.988;2023-04-24T11:53:50;4.75;;;2.50;;
55146;SDS011;41039;49.830;23.988;2023-04-24T11:56:18;4.47;;;2.53;;
55146;SDS011;41039;49.830;23.988;2023-04-24T11:58:51;3.50;;;2.67;;
55146;SDS011;41039;49.830;23.988;2023-04-24T12:01:16;5.43;;;2.58;;
55146;SDS011;41039;49.830;23.988;2023-04-24T12:03:42;4.47;;;2.35;;
55146;SDS011;41039;49.830;23.988;2023-04-24T12:06:11;5.53;;;2.70;;
55146;SDS011;41039;49.830;23.988;2023-04-24T12:08:37;7.03;;;2.80;;
55146;SDS011;41039;49.830;23.988;2023-04-24T12:11:03;3.92;;;2.42;;
55146;SDS011;41039;49.830;23.988;2023-04-24T12:13:29;3.35;;;2.20;;
55146;SDS011;41039;49.830;23.988;2023-04-24T12:15:54;6.40;;;2.70;;
55146;SDS011;41039;49.830;23.988;2023-04-24T12:18:23;5.88;;;2.75;;
55146;SDS011;41039;49.830;23.988;2023-04-24T12:20:49;3.78;;;2.80;;
55146;SDS011;41039;49.830;23.988;2023-04-24T12:23:15;2.90;;;2.25;;
55146;SDS011;41039;49.830;23.988;2023-04-24T12:25:40;2.85;;;2.40;;
55146;SDS011;41039;49.830;23.988;2023-04-24T12:30:32;8.43;;;2.60;;
55146;SDS011;41039;49.830;23.988;2023-04-24T12:32:58;4.03;;;2.58;;
55146;SDS011;41039;49.830;23.988;2023-04-24T12:35:25;3.65;;;2.47;;
55146;SDS011;41039;49.830;23.988;2023-04-24T12:37:50;7.32;;;2.72;;
55146;SDS011;41039;49.830;23.988;2023-04-24T12:40:17;4.25;;;2.10;;
55146;SDS011;41039;49.830;23.988;2023-04-24T12:42:43;4.03;;;2.90;;
55146;SDS011;41039;49.830;23.988;2023-04-24T12:45:09;5.25;;;2.72;;
55146;SDS011;41039;49.830;23.988;2023-04-24T12:47:34;5.82;;;2.67;;
55146;SDS011;41039;49.830;23.988;2023-04-24T12:50:00;4.22;;;2.40;;
55146;SDS011;41039;49.830;23.988;2023-04-24T12:52:26;4.47;;;2.00;;
55146;SDS011;41039;49.830;23.988;2023-04-24T12:54:56;3.78;;;2.10;;
55146;SDS011;41039;49.830;23.988;2023-04-24T12:57:22;3.47;;;2.13;;
55146;SDS011;41039;49.830;23.988;2023-04-24T12:59:47;3.65;;;2.10;;
55146;SDS011;41039;49.830;23.988;2023-04-24T13:02:12;4.95;;;2.13;;
55146;SDS011;41039;49.830;23.988;2023-04-24T13:04:38;5.93;;;2.80;;
55146;SDS011;41039;49.830;23.988;2023-04-24T13:07:03;3.17;;;2.15;;
55146;SDS011;41039;49.830;23.988;2023-04-24T13:09:29;5.40;;;3.03;;
55146;SDS011;41039;49.830;23.988;2023-04-24T13:11:55;4.05;;;2.58;;
55146;SDS011;41039;49.830;23.988;2023-04-24T13:14:21;3.78;;;2.05;;
55146;SDS011;41039;49.830;23.988;2023-04-24T13:16:47;3.05;;;1.83;;
55146;SDS011;41039;49.830;23.988;2023-04-24T13:19:12;8.63;;;3.13;;
55146;SDS011;41039;49.830;23.988;2023-04-24T13:21:37;3.93;;;2.10;;
55146;SDS011;41039;49.830;23.988;2023-04-24T13:24:02;3.63;;;2.20;;
55146;SDS011;41039;49.830;23.988;2023-04-24T13:26:29;5.13;;;1.98;;
55146;SDS011;41039;49.830;23.988;2023-04-24T13:28:55;3.88;;;2.53;;
55146;SDS011;41039;49.830;23.988;2023-04-24T13:31:20;4.07;;;2.00;;
55146;SDS011;41039;49.830;23.988;2023-04-24T13:33:46;4.90;;;2.50;;
55146;SDS011;41039;49.830;23.988;2023-04-24T13:36:11;4.30;;;2.27;;
55146;SDS011;41039;49.830;23.988;2023-04-24T13:38:36;7.07;;;2.87;;
55146;SDS011;41039;49.830;23.988;2023-04-24T13:41:01;6.97;;;2.08;;
55146;SDS011;41039;49.830;23.988;2023-04-24T13:43:27;2.90;;;2.25;;
55146;SDS011;41039;49.830;23.988;2023-04-24T13:45:52;4.22;;;2.33;;
55146;SDS011;41039;49.830;23.988;2023-04-24T13:48:18;5.47;;;2.57;;
55146;SDS011;41039;49.830;23.988;2023-04-24T13:50:43;9.95;;;3.00;;
55146;SDS011;41039;49.830;23.988;2023-04-24T13:53:09;7.95;;;3.38;;
55146;SDS011;41039;49.830;23.988;2023-04-24T13:55:34;6.88;;;2.47;;
55146;SDS011;41039;49.830;23.988;2023-04-24T13:58:00;5.18;;;2.20;;
55146;SDS011;41039;49.830;23.988;2023-04-24T14:00:26;4.95;;;2.35;;
55146;SDS011;41039;49.830;23.988;2023-04-24T14:02:51;7.95;;;3.03;;
55146;SDS011;41039;49.830;23.988;2023-04-24T14:05:16;7.93;;;3.33;;
55146;SDS011;41039;49.830;23.988;2023-04-24T14:07:42;5.43;;;2.83;;
55146;SDS011;41039;49.830;23.988;2023-04-24T14:10:07;6.80;;;2.47;;
55146;SDS011;41039;49.830;23.988;2023-04-24T14:12:33;5.35;;;2.90;;
55146;SDS011;41039;49.830;23.988;2023-04-24T14:14:58;3.22;;;2.40;;
55146;SDS011;41039;49.830;23.988;2023-04-24T14:17:23;3.92;;;2.40;;
55146;SDS011;41039;49.830;23.988;2023-04-24T14:19:49;6.53;;;2.65;;
55146;SDS011;41039;49.830;23.988;2023-04-24T14:22:16;4.82;;;3.08;;
55146;SDS011;41039;49.830;23.988;2023-04-24T14:24:42;5.28;;;2.70;;
55146;SDS011;41039;49.830;23.988;2023-04-24T14:27:07;6.67;;;2.73;;
55146;SDS011;41039;49.830;23.988;2023-04-24T14:29:32;4.57;;;3.10;;
55146;SDS011;41039;49.830;23.988;2023-04-24T14:31:57;4.93;;;2.83;;
55146;SDS011;41039;49.830;23.988;2023-04-24T14:34:23;4.72;;;3.00;;
55146;SDS011;41039;49.830;23.988;2023-04-24T14:36:48;5.63;;;3.75;;
55146;SDS011;41039;49.830;23.988;2023-04-24T14:39:13;6.23;;;3.40;;
55146;SDS011;41039;49.830;23.988;2023-04-24T14:41:38;4.23;;;3.00;;
55146;SDS011;41039;49.830;23.988;2023-04-24T14:44:04;10.23;;;3.92;;